sensor_id;sensor_type;location;lat;lon;timestamp;P1;durP1;ratioP1;P2;durP2;ratioP2
16969;SDS011;8601;48.718;8.992;2022-09-09T00:02:11;3.50;;;1.50;;
16969;SDS011;8601;48.718;8.992;2022-09-09T00:04:44;3.93;;;1.50;;
16969;SDS011;8601;48.718;8.992;2022-09-09T00:07:15;2.70;;;1.57;;
16969;SDS011;8601;48.718;8.992;2022-09-09T00:09:47;4.57;;;1.63;;
16969;SDS011;8601;48.718;8.992;2022-09-09T00:12:21;3.53;;;1.50;;
16969;SDS011;8601;48.718;8.992;2022-09-09T00:15:01;3.90;;;1.40;;
16969;SDS011;8601;48.718;8.992;2022-09-09T00:17:34;4.60;;;1.50;;
16969;SDS011;8601;48.718;8.992;2022-09-09T00:20:09;2.30;;;1.20;;
16969;SDS011;8601;48.718;8.992;2022-09-09T00:22:39;2.27;;;1.40;;
16969;SDS011;8601;48.718;8.992;2022-09-09T00:25:14;3.13;;;1.40;;
16969;SDS011;8601;48.718;8.992;2022-09-09T00:27:47;3.77;;;1.43;;
16969;SDS011;8601;48.718;8.992;2022-09-09T00:30:17;3.03;;;1.10;;
16969;SDS011;8601;48.718;8.992;2022-09-09T00:33:00;4.27;;;1.53;;
16969;SDS011;8601;48.718;8.992;2022-09-09T00:35:37;4.17;;;1.20;;
16969;SDS011;8601;48.718;8.992;2022-09-09T00:38:08;2.23;;;1.30;;
16969;SDS011;8601;48.718;8.992;2022-09-09T00:40:41;3.83;;;1.90;;
16969;SDS011;8601;48.718;8.992;2022-09-09T00:43:20;3.73;;;1.17;;
16969;SDS011;8601;48.718;8.992;2022-09-09T00:45:54;3.37;;;1.23;;
16969;SDS011;8601;48.718;8.992;2022-09-09T00:48:41;2.87;;;1.30;;
16969;SDS011;8601;48.718;8.992;2022-09-09T00:51:19;3.23;;;1.23;;
16969;SDS011;8601;48.718;8.992;2022-09-09T00:53:59;2.43;;;1.13;;
16969;SDS011;8601;48.718;8.992;2022-09-09T00:56:42;2.67;;;1.40;;
16969;SDS011;8601;48.718;8.992;2022-09-09T00:59:20;4.10;;;1.30;;
16969;SDS011;8601;48.718;8.992;2022-09-09T01:02:12;2.50;;;1.40;;
16969;SDS011;8601;48.718;8.992;2022-09-09T01:05:01;2.87;;;1.40;;
16969;SDS011;8601;48.718;8.992;2022-09-09T01:10:17;1.77;;;1.40;;
16969;SDS011;8601;48.718;8.992;2022-09-09T01:12:52;2.97;;;1.43;;
16969;SDS011;8601;48.718;8.992;2022-09-09T01:15:22;3.10;;;1.23;;
16969;SDS011;8601;48.718;8.992;2022-09-09T01:17:58;6.47;;;1.50;;
16969;SDS011;8601;48.718;8.992;2022-09-09T01:20:31;2.20;;;1.20;;
16969;SDS011;8601;48.718;8.992;2022-09-09T01:26:09;3.73;;;1.37;;
16969;SDS011;8601;48.718;8.992;2022-09-09T01:31:35;1.53;;;1.10;;
16969;SDS011;8601;48.718;8.992;2022-09-09T01:34:07;2.77;;;1.10;;
16969;SDS011;8601;48.718;8.992;2022-09-09T01:36:45;4.37;;;1.30;;
16969;SDS011;8601;48.718;8.992;2022-09-09T01:39:18;2.30;;;1.30;;
16969;SDS011;8601;48.718;8.992;2022-09-09T01:41:47;2.73;;;1.43;;
16969;SDS011;8601;48.718;8.992;2022-09-09T01:44:24;5.33;;;1.60;;
16969;SDS011;8601;48.718;8.992;2022-09-09T01:47:06;2.27;;;1.57;;
16969;SDS011;8601;48.718;8.992;2022-09-09T01:49:33;3.83;;;1.30;;
16969;SDS011;8601;48.718;8.992;2022-09-09T01:52:01;3.63;;;1.43;;
16969;SDS011;8601;48.718;8.992;2022-09-09T01:54:30;2.23;;;1.40;;
16969;SDS011;8601;48.718;8.992;2022-09-09T01:57:01;1.83;;;1.20;;
16969;SDS011;8601;48.718;8.992;2022-09-09T01:59:39;2.10;;;1.20;;
16969;SDS011;8601;48.718;8.992;2022-09-09T02:02:16;2.37;;;1.60;;
16969;SDS011;8601;48.718;8.992;2022-09-09T02:04:47;2.40;;;1.10;;
16969;SDS011;8601;48.718;8.992;2022-09-09T02:13:27;2.87;;;1.27;;
16969;SDS011;8601;48.718;8.992;2022-09-09T02:16:00;1.20;;;1.00;;
16969;SDS011;8601;48.718;8.992;2022-09-09T02:18:32;3.37;;;1.50;;
16969;SDS011;8601;48.718;8.992;2022-09-09T02:21:19;3.53;;;1.53;;
16969;SDS011;8601;48.718;8.992;2022-09-09T02:26:42;3.33;;;1.40;;
16969;SDS011;8601;48.718;8.992;2022-09-09T02:29:14;2.57;;;1.20;;
16969;SDS011;8601;48.718;8.992;2022-09-09T02:31:45;3.20;;;1.37;;
16969;SDS011;8601;48.718;8.992;2022-09-09T02:34:14;1.50;;;1.40;;
16969;SDS011;8601;48.718;8.992;2022-09-09T02:36:44;3.77;;;1.20;;
16969;SDS011;8601;48.718;8.992;2022-09-09T02:39:15;2.33;;;1.37;;
16969;SDS011;8601;48.718;8.992;2022-09-09T02:41:42;3.90;;;1.37;;
16969;SDS011;8601;48.718;8.992;2022-09-09T02:44:09;4.03;;;1.50;;
16969;SDS011;8601;48.718;8.992;2022-09-09T02:46:46;3.97;;;1.30;;
16969;SDS011;8601;48.718;8.992;2022-09-09T02:49:28;2.40;;;1.23;;
16969;SDS011;8601;48.718;8.992;2022-09-09T02:52:04;1.63;;;1.10;;
16969;SDS011;8601;48.718;8.992;2022-09-09T02:54:33;1.77;;;1.00;;
16969;SDS011;8601;48.718;8.992;2022-09-09T02:57:02;2.40;;;1.00;;
16969;SDS011;8601;48.718;8.992;2022-09-09T02:59:32;4.70;;;1.27;;
16969;SDS011;8601;48.718;8.992;2022-09-09T03:02:01;3.80;;;1.13;;
16969;SDS011;8601;48.718;8.992;2022-09-09T03:04:28;2.83;;;1.10;;
16969;SDS011;8601;48.718;8.992;2022-09-09T03:06:56;2.20;;;1.47;;
16969;SDS011;8601;48.718;8.992;2022-09-09T03:09:23;2.67;;;1.10;;
16969;SDS011;8601;48.718;8.992;2022-09-09T03:11:50;1.57;;;0.90;;
16969;SDS011;8601;48.718;8.992;2022-09-09T03:14:20;1.43;;;1.30;;
16969;SDS011;8601;48.718;8.992;2022-09-09T03:16:49;3.10;;;1.30;;
16969;SDS011;8601;48.718;8.992;2022-09-09T03:19:18;1.83;;;0.90;;
16969;SDS011;8601;48.718;8.992;2022-09-09T03:21:45;4.10;;;1.17;;
16969;SDS011;8601;48.718;8.992;2022-09-09T03:24:12;1.77;;;1.00;;
16969;SDS011;8601;48.718;8.992;2022-09-09T03:26:39;2.03;;;1.10;;
16969;SDS011;8601;48.718;8.992;2022-09-09T03:29:09;3.67;;;1.27;;
16969;SDS011;8601;48.718;8.992;2022-09-09T03:31:37;2.87;;;1.33;;
16969;SDS011;8601;48.718;8.992;2022-09-09T03:34:04;2.30;;;1.00;;
16969;SDS011;8601;48.718;8.992;2022-09-09T03:36:34;1.80;;;1.37;;
16969;SDS011;8601;48.718;8.992;2022-09-09T03:39:01;2.37;;;1.20;;
16969;SDS011;8601;48.718;8.992;2022-09-09T03:41:29;2.50;;;1.10;;
16969;SDS011;8601;48.718;8.992;2022-09-09T03:43:58;1.63;;;1.33;;
16969;SDS011;8601;48.718;8.992;2022-09-09T03:46:25;1.73;;;1.30;;
16969;SDS011;8601;48.718;8.992;2022-09-09T03:48:52;2.63;;;1.43;;
16969;SDS011;8601;48.718;8.992;2022-09-09T03:51:28;3.23;;;1.40;;
16969;SDS011;8601;48.718;8.992;2022-09-09T03:53:56;2.30;;;1.10;;
16969;SDS011;8601;48.718;8.992;2022-09-09T03:56:23;2.07;;;1.07;;
16969;SDS011;8601;48.718;8.992;2022-09-09T03:58:51;2.50;;;1.13;;
16969;SDS011;8601;48.718;8.992;2022-09-09T04:01:18;1.70;;;1.20;;
16969;SDS011;8601;48.718;8.992;2022-09-09T04:03:44;2.93;;;1.30;;
16969;SDS011;8601;48.718;8.992;2022-09-09T04:06:12;2.00;;;1.37;;
16969;SDS011;8601;48.718;8.992;2022-09-09T04:08:40;2.13;;;1.20;;
16969;SDS011;8601;48.718;8.992;2022-09-09T04:11:09;1.83;;;1.10;;
16969;SDS011;8601;48.718;8.992;2022-09-09T04:13:36;2.33;;;1.20;;
16969;SDS011;8601;48.718;8.992;2022-09-09T04:16:05;3.80;;;1.40;;
16969;SDS011;8601;48.718;8.992;2022-09-09T04:18:33;2.67;;;1.27;;
16969;SDS011;8601;48.718;8.992;2022-09-09T04:21:00;3.47;;;1.20;;
16969;SDS011;8601;48.718;8.992;2022-09-09T04:26:16;3.10;;;1.40;;
16969;SDS011;8601;48.718;8.992;2022-09-09T04:28:48;2.47;;;1.40;;
16969;SDS011;8601;48.718;8.992;2022-09-09T04:31:15;1.40;;;1.30;;
16969;SDS011;8601;48.718;8.992;2022-09-09T04:33:45;2.60;;;1.40;;
16969;SDS011;8601;48.718;8.992;2022-09-09T04:36:12;2.13;;;1.30;;
16969;SDS011;8601;48.718;8.992;2022-09-09T04:38:39;3.00;;;1.40;;
16969;SDS011;8601;48.718;8.992;2022-09-09T04:41:20;3.17;;;1.40;;
16969;SDS011;8601;48.718;8.992;2022-09-09T04:43:47;2.33;;;1.57;;
16969;SDS011;8601;48.718;8.992;2022-09-09T04:46:14;3.50;;;1.33;;
16969;SDS011;8601;48.718;8.992;2022-09-09T04:48:42;4.00;;;1.60;;
16969;SDS011;8601;48.718;8.992;2022-09-09T04:51:10;3.10;;;1.57;;
16969;SDS011;8601;48.718;8.992;2022-09-09T04:53:38;3.50;;;1.60;;
16969;SDS011;8601;48.718;8.992;2022-09-09T04:56:06;3.40;;;1.50;;
16969;SDS011;8601;48.718;8.992;2022-09-09T04:58:36;5.20;;;1.60;;
16969;SDS011;8601;48.718;8.992;2022-09-09T05:01:05;3.27;;;1.57;;
16969;SDS011;8601;48.718;8.992;2022-09-09T05:03:33;2.60;;;1.37;;
16969;SDS011;8601;48.718;8.992;2022-09-09T05:06:03;2.37;;;1.40;;
16969;SDS011;8601;48.718;8.992;2022-09-09T05:11:14;2.50;;;1.13;;
16969;SDS011;8601;48.718;8.992;2022-09-09T05:13:45;4.47;;;1.27;;
16969;SDS011;8601;48.718;8.992;2022-09-09T05:16:12;3.30;;;1.40;;
16969;SDS011;8601;48.718;8.992;2022-09-09T05:18:40;2.83;;;1.43;;
16969;SDS011;8601;48.718;8.992;2022-09-09T05:21:09;4.00;;;1.50;;
16969;SDS011;8601;48.718;8.992;2022-09-09T05:23:36;6.03;;;1.80;;
16969;SDS011;8601;48.718;8.992;2022-09-09T05:26:04;3.67;;;1.47;;
16969;SDS011;8601;48.718;8.992;2022-09-09T05:28:33;1.60;;;1.40;;
16969;SDS011;8601;48.718;8.992;2022-09-09T05:31:03;2.57;;;1.83;;
16969;SDS011;8601;48.718;8.992;2022-09-09T05:33:34;1.80;;;1.30;;
16969;SDS011;8601;48.718;8.992;2022-09-09T05:36:02;2.10;;;1.30;;
16969;SDS011;8601;48.718;8.992;2022-09-09T05:38:31;3.07;;;1.60;;
16969;SDS011;8601;48.718;8.992;2022-09-09T05:40:58;6.87;;;1.93;;
16969;SDS011;8601;48.718;8.992;2022-09-09T05:43:26;3.53;;;1.70;;
16969;SDS011;8601;48.718;8.992;2022-09-09T05:46:01;4.33;;;1.80;;
16969;SDS011;8601;48.718;8.992;2022-09-09T05:48:30;4.40;;;1.50;;
16969;SDS011;8601;48.718;8.992;2022-09-09T05:50:58;4.33;;;1.77;;
16969;SDS011;8601;48.718;8.992;2022-09-09T05:53:25;4.07;;;1.80;;
16969;SDS011;8601;48.718;8.992;2022-09-09T05:55:59;5.73;;;1.90;;
16969;SDS011;8601;48.718;8.992;2022-09-09T05:58:32;2.73;;;1.87;;
16969;SDS011;8601;48.718;8.992;2022-09-09T06:01:03;2.57;;;1.80;;
16969;SDS011;8601;48.718;8.992;2022-09-09T06:03:31;4.83;;;1.90;;
16969;SDS011;8601;48.718;8.992;2022-09-09T06:05:59;2.60;;;1.63;;
16969;SDS011;8601;48.718;8.992;2022-09-09T06:08:30;2.73;;;1.77;;
16969;SDS011;8601;48.718;8.992;2022-09-09T06:11:02;5.60;;;2.07;;
16969;SDS011;8601;48.718;8.992;2022-09-09T06:13:30;6.13;;;1.70;;
16969;SDS011;8601;48.718;8.992;2022-09-09T06:15:57;4.07;;;1.93;;
16969;SDS011;8601;48.718;8.992;2022-09-09T06:18:34;3.53;;;2.10;;
16969;SDS011;8601;48.718;8.992;2022-09-09T06:21:02;2.90;;;1.77;;
16969;SDS011;8601;48.718;8.992;2022-09-09T06:23:34;4.30;;;1.80;;
16969;SDS011;8601;48.718;8.992;2022-09-09T06:26:02;3.27;;;1.53;;
16969;SDS011;8601;48.718;8.992;2022-09-09T06:28:41;2.90;;;1.63;;
16969;SDS011;8601;48.718;8.992;2022-09-09T06:31:09;3.57;;;1.60;;
16969;SDS011;8601;48.718;8.992;2022-09-09T06:33:39;6.30;;;2.00;;
16969;SDS011;8601;48.718;8.992;2022-09-09T06:36:10;5.70;;;2.27;;
16969;SDS011;8601;48.718;8.992;2022-09-09T06:38:38;4.00;;;1.73;;
16969;SDS011;8601;48.718;8.992;2022-09-09T06:41:05;4.03;;;1.73;;
16969;SDS011;8601;48.718;8.992;2022-09-09T06:46:54;3.33;;;1.50;;
16969;SDS011;8601;48.718;8.992;2022-09-09T06:49:22;3.13;;;1.70;;
16969;SDS011;8601;48.718;8.992;2022-09-09T06:51:49;3.87;;;1.70;;
16969;SDS011;8601;48.718;8.992;2022-09-09T06:54:17;2.67;;;1.30;;
16969;SDS011;8601;48.718;8.992;2022-09-09T06:56:44;4.30;;;1.40;;
16969;SDS011;8601;48.718;8.992;2022-09-09T06:59:11;4.90;;;1.90;;
16969;SDS011;8601;48.718;8.992;2022-09-09T07:01:44;3.73;;;1.80;;
16969;SDS011;8601;48.718;8.992;2022-09-09T07:04:13;5.83;;;2.00;;
16969;SDS011;8601;48.718;8.992;2022-09-09T07:06:41;4.07;;;1.70;;
16969;SDS011;8601;48.718;8.992;2022-09-09T07:09:18;4.20;;;1.50;;
16969;SDS011;8601;48.718;8.992;2022-09-09T07:14:42;4.10;;;2.13;;
16969;SDS011;8601;48.718;8.992;2022-09-09T07:17:09;3.20;;;1.50;;
16969;SDS011;8601;48.718;8.992;2022-09-09T07:19:36;2.97;;;1.63;;
16969;SDS011;8601;48.718;8.992;2022-09-09T07:22:23;3.07;;;1.40;;
16969;SDS011;8601;48.718;8.992;2022-09-09T07:24:50;3.90;;;1.50;;
16969;SDS011;8601;48.718;8.992;2022-09-09T07:27:17;4.13;;;1.20;;
16969;SDS011;8601;48.718;8.992;2022-09-09T07:29:44;4.47;;;1.50;;
16969;SDS011;8601;48.718;8.992;2022-09-09T07:32:11;4.33;;;1.30;;
16969;SDS011;8601;48.718;8.992;2022-09-09T07:34:38;3.63;;;1.50;;
16969;SDS011;8601;48.718;8.992;2022-09-09T07:37:05;3.67;;;1.30;;
16969;SDS011;8601;48.718;8.992;2022-09-09T07:39:34;4.10;;;1.93;;
16969;SDS011;8601;48.718;8.992;2022-09-09T07:42:01;5.63;;;1.63;;
16969;SDS011;8601;48.718;8.992;2022-09-09T07:50:31;5.67;;;1.67;;
16969;SDS011;8601;48.718;8.992;2022-09-09T07:52:57;3.20;;;1.27;;
16969;SDS011;8601;48.718;8.992;2022-09-09T07:55:27;4.27;;;1.50;;
16969;SDS011;8601;48.718;8.992;2022-09-09T07:57:54;4.20;;;1.67;;
16969;SDS011;8601;48.718;8.992;2022-09-09T08:03:38;3.27;;;1.30;;
16969;SDS011;8601;48.718;8.992;2022-09-09T08:09:12;3.10;;;1.43;;
16969;SDS011;8601;48.718;8.992;2022-09-09T08:11:49;4.27;;;1.50;;
16969;SDS011;8601;48.718;8.992;2022-09-09T08:14:16;5.57;;;1.50;;
16969;SDS011;8601;48.718;8.992;2022-09-09T08:16:44;3.73;;;1.63;;
16969;SDS011;8601;48.718;8.992;2022-09-09T08:19:12;4.43;;;1.50;;
16969;SDS011;8601;48.718;8.992;2022-09-09T08:27:13;2.77;;;1.30;;
16969;SDS011;8601;48.718;8.992;2022-09-09T08:29:49;3.57;;;1.53;;
16969;SDS011;8601;48.718;8.992;2022-09-09T08:32:16;5.60;;;1.80;;
16969;SDS011;8601;48.718;8.992;2022-09-09T08:34:44;4.17;;;1.30;;
16969;SDS011;8601;48.718;8.992;2022-09-09T08:37:10;3.87;;;1.13;;
16969;SDS011;8601;48.718;8.992;2022-09-09T08:43:17;5.10;;;1.30;;
16969;SDS011;8601;48.718;8.992;2022-09-09T08:46:00;2.97;;;1.57;;
16969;SDS011;8601;48.718;8.992;2022-09-09T08:48:41;3.30;;;1.30;;
16969;SDS011;8601;48.718;8.992;2022-09-09T08:51:18;3.97;;;1.50;;
16969;SDS011;8601;48.718;8.992;2022-09-09T08:53:46;3.23;;;1.37;;
16969;SDS011;8601;48.718;8.992;2022-09-09T08:56:18;3.37;;;1.40;;
16969;SDS011;8601;48.718;8.992;2022-09-09T09:01:35;3.20;;;1.30;;
16969;SDS011;8601;48.718;8.992;2022-09-09T09:04:17;5.57;;;1.50;;
16969;SDS011;8601;48.718;8.992;2022-09-09T09:06:58;4.40;;;1.63;;
16969;SDS011;8601;48.718;8.992;2022-09-09T09:09:35;3.63;;;1.30;;
16969;SDS011;8601;48.718;8.992;2022-09-09T09:12:28;1.80;;;0.90;;
16969;SDS011;8601;48.718;8.992;2022-09-09T09:15:07;0.93;;;0.70;;
16969;SDS011;8601;48.718;8.992;2022-09-09T09:17:43;0.97;;;0.70;;
16969;SDS011;8601;48.718;8.992;2022-09-09T09:20:11;1.90;;;0.60;;
16969;SDS011;8601;48.718;8.992;2022-09-09T09:22:43;0.90;;;0.60;;
16969;SDS011;8601;48.718;8.992;2022-09-09T09:25:16;2.00;;;0.80;;
16969;SDS011;8601;48.718;8.992;2022-09-09T09:27:47;1.17;;;0.60;;
16969;SDS011;8601;48.718;8.992;2022-09-09T09:30:20;2.30;;;0.90;;
16969;SDS011;8601;48.718;8.992;2022-09-09T09:32:54;2.03;;;1.03;;
16969;SDS011;8601;48.718;8.992;2022-09-09T09:35:41;2.23;;;1.00;;
16969;SDS011;8601;48.718;8.992;2022-09-09T09:38:11;3.20;;;0.80;;
16969;SDS011;8601;48.718;8.992;2022-09-09T09:40:48;1.57;;;1.13;;
16969;SDS011;8601;48.718;8.992;2022-09-09T09:43:27;2.07;;;1.07;;
16969;SDS011;8601;48.718;8.992;2022-09-09T09:45:58;2.17;;;1.10;;
16969;SDS011;8601;48.718;8.992;2022-09-09T09:48:26;3.90;;;1.10;;
16969;SDS011;8601;48.718;8.992;2022-09-09T09:50:55;8.67;;;1.60;;
16969;SDS011;8601;48.718;8.992;2022-09-09T09:53:24;3.10;;;1.30;;
16969;SDS011;8601;48.718;8.992;2022-09-09T09:55:56;3.77;;;1.50;;
16969;SDS011;8601;48.718;8.992;2022-09-09T10:00:58;3.33;;;1.50;;
16969;SDS011;8601;48.718;8.992;2022-09-09T10:03:27;3.07;;;1.43;;
16969;SDS011;8601;48.718;8.992;2022-09-09T10:06:04;4.67;;;1.17;;
16969;SDS011;8601;48.718;8.992;2022-09-09T10:08:33;2.80;;;1.10;;
16969;SDS011;8601;48.718;8.992;2022-09-09T10:14:21;3.63;;;1.10;;
16969;SDS011;8601;48.718;8.992;2022-09-09T10:17:03;2.53;;;1.10;;
16969;SDS011;8601;48.718;8.992;2022-09-09T10:22:30;2.40;;;1.03;;
16969;SDS011;8601;48.718;8.992;2022-09-09T10:25:12;1.80;;;1.30;;
16969;SDS011;8601;48.718;8.992;2022-09-09T10:28:10;4.77;;;1.53;;
16969;SDS011;8601;48.718;8.992;2022-09-09T10:31:04;5.63;;;2.70;;
16969;SDS011;8601;48.718;8.992;2022-09-09T10:33:44;2.10;;;0.90;;
16969;SDS011;8601;48.718;8.992;2022-09-09T10:38:57;2.70;;;1.20;;
16969;SDS011;8601;48.718;8.992;2022-09-09T10:41:34;2.67;;;0.90;;
16969;SDS011;8601;48.718;8.992;2022-09-09T10:47:09;3.73;;;1.23;;
16969;SDS011;8601;48.718;8.992;2022-09-09T10:49:55;2.53;;;1.00;;
16969;SDS011;8601;48.718;8.992;2022-09-09T10:52:44;2.40;;;0.93;;
16969;SDS011;8601;48.718;8.992;2022-09-09T10:55:23;2.50;;;1.33;;
16969;SDS011;8601;48.718;8.992;2022-09-09T10:57:58;3.03;;;1.07;;
16969;SDS011;8601;48.718;8.992;2022-09-09T11:00:27;1.30;;;1.00;;
16969;SDS011;8601;48.718;8.992;2022-09-09T11:03:02;2.97;;;0.90;;
16969;SDS011;8601;48.718;8.992;2022-09-09T11:08:13;3.20;;;0.97;;
16969;SDS011;8601;48.718;8.992;2022-09-09T11:10:44;2.40;;;0.87;;
16969;SDS011;8601;48.718;8.992;2022-09-09T11:13:18;1.17;;;0.77;;
16969;SDS011;8601;48.718;8.992;2022-09-09T11:15:52;1.33;;;0.70;;
16969;SDS011;8601;48.718;8.992;2022-09-09T11:18:23;1.30;;;0.90;;
16969;SDS011;8601;48.718;8.992;2022-09-09T11:20:51;1.80;;;0.80;;
16969;SDS011;8601;48.718;8.992;2022-09-09T11:23:26;1.33;;;1.00;;
16969;SDS011;8601;48.718;8.992;2022-09-09T11:25:59;2.07;;;0.70;;
16969;SDS011;8601;48.718;8.992;2022-09-09T11:28:35;0.97;;;0.83;;
16969;SDS011;8601;48.718;8.992;2022-09-09T11:31:17;1.27;;;0.67;;
16969;SDS011;8601;48.718;8.992;2022-09-09T11:34:07;0.60;;;0.60;;
16969;SDS011;8601;48.718;8.992;2022-09-09T11:36:56;0.97;;;0.70;;
16969;SDS011;8601;48.718;8.992;2022-09-09T11:39:51;2.30;;;1.10;;
16969;SDS011;8601;48.718;8.992;2022-09-09T11:42:39;1.27;;;1.00;;
16969;SDS011;8601;48.718;8.992;2022-09-09T11:45:20;1.30;;;0.80;;
16969;SDS011;8601;48.718;8.992;2022-09-09T11:47:51;3.83;;;1.00;;
16969;SDS011;8601;48.718;8.992;2022-09-09T12:01:58;2.17;;;0.80;;
16969;SDS011;8601;48.718;8.992;2022-09-09T12:10:20;1.70;;;0.80;;
16969;SDS011;8601;48.718;8.992;2022-09-09T12:12:51;1.10;;;0.60;;
16969;SDS011;8601;48.718;8.992;2022-09-09T12:15:20;1.90;;;0.63;;
16969;SDS011;8601;48.718;8.992;2022-09-09T12:17:51;1.10;;;1.00;;
16969;SDS011;8601;48.718;8.992;2022-09-09T12:20:20;1.13;;;0.53;;
16969;SDS011;8601;48.718;8.992;2022-09-09T12:25:47;2.53;;;1.00;;
16969;SDS011;8601;48.718;8.992;2022-09-09T12:28:24;0.87;;;0.60;;
16969;SDS011;8601;48.718;8.992;2022-09-09T12:31:09;1.07;;;0.60;;
16969;SDS011;8601;48.718;8.992;2022-09-09T12:33:43;4.00;;;0.83;;
16969;SDS011;8601;48.718;8.992;2022-09-09T12:36:13;1.50;;;0.70;;
16969;SDS011;8601;48.718;8.992;2022-09-09T12:38:44;1.53;;;0.77;;
16969;SDS011;8601;48.718;8.992;2022-09-09T12:41:23;2.50;;;0.80;;
16969;SDS011;8601;48.718;8.992;2022-09-09T12:46:43;1.53;;;0.63;;
16969;SDS011;8601;48.718;8.992;2022-09-09T12:49:21;1.33;;;0.87;;
16969;SDS011;8601;48.718;8.992;2022-09-09T12:51:54;2.40;;;1.30;;
16969;SDS011;8601;48.718;8.992;2022-09-09T12:54:23;1.83;;;0.80;;
16969;SDS011;8601;48.718;8.992;2022-09-09T12:56:57;1.03;;;0.80;;
16969;SDS011;8601;48.718;8.992;2022-09-09T12:59:25;1.27;;;0.70;;
16969;SDS011;8601;48.718;8.992;2022-09-09T13:01:56;0.83;;;0.80;;
16969;SDS011;8601;48.718;8.992;2022-09-09T13:04:24;3.57;;;0.90;;
16969;SDS011;8601;48.718;8.992;2022-09-09T13:09:32;3.57;;;0.90;;
16969;SDS011;8601;48.718;8.992;2022-09-09T13:12:00;3.40;;;1.00;;
16969;SDS011;8601;48.718;8.992;2022-09-09T13:14:31;1.73;;;0.80;;
16969;SDS011;8601;48.718;8.992;2022-09-09T13:17:03;2.23;;;1.00;;
16969;SDS011;8601;48.718;8.992;2022-09-09T13:19:32;3.27;;;0.87;;
16969;SDS011;8601;48.718;8.992;2022-09-09T13:22:10;1.23;;;0.63;;
16969;SDS011;8601;48.718;8.992;2022-09-09T13:24:38;4.43;;;0.90;;
16969;SDS011;8601;48.718;8.992;2022-09-09T13:27:21;1.47;;;0.70;;
16969;SDS011;8601;48.718;8.992;2022-09-09T13:29:58;1.13;;;0.67;;
16969;SDS011;8601;48.718;8.992;2022-09-09T13:32:26;4.80;;;1.00;;
16969;SDS011;8601;48.718;8.992;2022-09-09T13:34:54;3.37;;;1.00;;
16969;SDS011;8601;48.718;8.992;2022-09-09T13:37:23;2.07;;;1.10;;
16969;SDS011;8601;48.718;8.992;2022-09-09T13:39:55;1.90;;;0.80;;
16969;SDS011;8601;48.718;8.992;2022-09-09T13:42:25;1.93;;;0.70;;
16969;SDS011;8601;48.718;8.992;2022-09-09T13:44:53;2.13;;;0.73;;
16969;SDS011;8601;48.718;8.992;2022-09-09T13:47:26;2.77;;;0.70;;
16969;SDS011;8601;48.718;8.992;2022-09-09T13:49:56;2.97;;;0.77;;
16969;SDS011;8601;48.718;8.992;2022-09-09T13:52:23;1.47;;;0.70;;
16969;SDS011;8601;48.718;8.992;2022-09-09T13:54:51;1.57;;;0.70;;
16969;SDS011;8601;48.718;8.992;2022-09-09T13:57:20;1.83;;;0.60;;
16969;SDS011;8601;48.718;8.992;2022-09-09T13:59:51;1.20;;;0.70;;
16969;SDS011;8601;48.718;8.992;2022-09-09T14:02:19;2.20;;;0.83;;
16969;SDS011;8601;48.718;8.992;2022-09-09T14:04:48;1.40;;;0.90;;
16969;SDS011;8601;48.718;8.992;2022-09-09T14:07:16;0.93;;;0.63;;
16969;SDS011;8601;48.718;8.992;2022-09-09T14:09:45;1.30;;;0.60;;
16969;SDS011;8601;48.718;8.992;2022-09-09T14:12:15;1.27;;;0.50;;
16969;SDS011;8601;48.718;8.992;2022-09-09T14:14:43;1.20;;;0.60;;
16969;SDS011;8601;48.718;8.992;2022-09-09T14:20:13;1.77;;;0.63;;
16969;SDS011;8601;48.718;8.992;2022-09-09T14:22:40;1.23;;;0.70;;
16969;SDS011;8601;48.718;8.992;2022-09-09T14:25:09;2.33;;;0.90;;
16969;SDS011;8601;48.718;8.992;2022-09-09T14:27:36;1.27;;;0.93;;
16969;SDS011;8601;48.718;8.992;2022-09-09T14:32:34;0.80;;;0.70;;
16969;SDS011;8601;48.718;8.992;2022-09-09T14:35:03;1.57;;;0.50;;
16969;SDS011;8601;48.718;8.992;2022-09-09T14:37:32;1.27;;;0.60;;
16969;SDS011;8601;48.718;8.992;2022-09-09T14:39:59;1.53;;;0.60;;
16969;SDS011;8601;48.718;8.992;2022-09-09T14:42:26;3.30;;;0.90;;
16969;SDS011;8601;48.718;8.992;2022-09-09T14:44:54;2.13;;;0.70;;
16969;SDS011;8601;48.718;8.992;2022-09-09T14:47:21;1.17;;;0.60;;
16969;SDS011;8601;48.718;8.992;2022-09-09T14:49:48;1.07;;;0.70;;
16969;SDS011;8601;48.718;8.992;2022-09-09T14:52:16;2.23;;;0.67;;
16969;SDS011;8601;48.718;8.992;2022-09-09T14:54:43;0.77;;;0.53;;
16969;SDS011;8601;48.718;8.992;2022-09-09T14:57:18;2.27;;;0.97;;
16969;SDS011;8601;48.718;8.992;2022-09-09T14:59:45;1.13;;;0.60;;
16969;SDS011;8601;48.718;8.992;2022-09-09T15:02:12;2.13;;;0.70;;
16969;SDS011;8601;48.718;8.992;2022-09-09T15:04:39;1.77;;;0.80;;
16969;SDS011;8601;48.718;8.992;2022-09-09T15:07:06;2.20;;;0.93;;
16969;SDS011;8601;48.718;8.992;2022-09-09T15:09:35;2.23;;;0.90;;
16969;SDS011;8601;48.718;8.992;2022-09-09T15:12:02;2.07;;;0.90;;
16969;SDS011;8601;48.718;8.992;2022-09-09T15:14:46;2.27;;;0.93;;
16969;SDS011;8601;48.718;8.992;2022-09-09T15:17:13;1.47;;;0.80;;
16969;SDS011;8601;48.718;8.992;2022-09-09T15:19:40;4.20;;;0.70;;
16969;SDS011;8601;48.718;8.992;2022-09-09T15:22:07;2.30;;;0.70;;
16969;SDS011;8601;48.718;8.992;2022-09-09T15:24:36;3.33;;;0.80;;
16969;SDS011;8601;48.718;8.992;2022-09-09T15:27:03;1.73;;;0.90;;
16969;SDS011;8601;48.718;8.992;2022-09-09T15:29:30;1.97;;;0.77;;
16969;SDS011;8601;48.718;8.992;2022-09-09T15:31:58;1.47;;;0.90;;
16969;SDS011;8601;48.718;8.992;2022-09-09T15:37:24;4.30;;;0.90;;
16969;SDS011;8601;48.718;8.992;2022-09-09T15:39:52;2.00;;;0.93;;
16969;SDS011;8601;48.718;8.992;2022-09-09T15:42:19;1.10;;;0.67;;
16969;SDS011;8601;48.718;8.992;2022-09-09T15:44:46;1.87;;;0.87;;
16969;SDS011;8601;48.718;8.992;2022-09-09T15:47:12;1.70;;;0.80;;
16969;SDS011;8601;48.718;8.992;2022-09-09T15:49:40;1.43;;;0.60;;
16969;SDS011;8601;48.718;8.992;2022-09-09T15:52:08;1.50;;;1.00;;
16969;SDS011;8601;48.718;8.992;2022-09-09T15:54:36;1.33;;;0.70;;
16969;SDS011;8601;48.718;8.992;2022-09-09T15:57:05;2.77;;;1.07;;
16969;SDS011;8601;48.718;8.992;2022-09-09T15:59:34;1.50;;;0.80;;
16969;SDS011;8601;48.718;8.992;2022-09-09T16:02:01;1.63;;;1.00;;
16969;SDS011;8601;48.718;8.992;2022-09-09T16:04:29;2.03;;;0.90;;
16969;SDS011;8601;48.718;8.992;2022-09-09T16:06:57;3.20;;;1.00;;
16969;SDS011;8601;48.718;8.992;2022-09-09T16:09:25;1.70;;;0.87;;
16969;SDS011;8601;48.718;8.992;2022-09-09T16:11:52;1.27;;;0.87;;
16969;SDS011;8601;48.718;8.992;2022-09-09T16:14:24;2.30;;;1.07;;
16969;SDS011;8601;48.718;8.992;2022-09-09T16:16:51;1.77;;;0.90;;
16969;SDS011;8601;48.718;8.992;2022-09-09T16:19:19;2.47;;;0.80;;
16969;SDS011;8601;48.718;8.992;2022-09-09T16:21:46;3.17;;;1.03;;
16969;SDS011;8601;48.718;8.992;2022-09-09T16:24:16;2.60;;;1.13;;
16969;SDS011;8601;48.718;8.992;2022-09-09T16:26:44;2.47;;;1.10;;
16969;SDS011;8601;48.718;8.992;2022-09-09T16:29:12;1.37;;;0.70;;
16969;SDS011;8601;48.718;8.992;2022-09-09T16:31:41;3.43;;;0.80;;
16969;SDS011;8601;48.718;8.992;2022-09-09T16:34:15;1.93;;;0.87;;
16969;SDS011;8601;48.718;8.992;2022-09-09T16:36:47;1.70;;;0.80;;
16969;SDS011;8601;48.718;8.992;2022-09-09T16:39:18;0.80;;;0.70;;
16969;SDS011;8601;48.718;8.992;2022-09-09T16:41:46;0.50;;;0.50;;
16969;SDS011;8601;48.718;8.992;2022-09-09T16:44:25;0.50;;;0.50;;
16969;SDS011;8601;48.718;8.992;2022-09-09T16:46:54;1.50;;;0.60;;
16969;SDS011;8601;48.718;8.992;2022-09-09T16:49:21;1.57;;;0.60;;
16969;SDS011;8601;48.718;8.992;2022-09-09T16:52:05;0.97;;;0.60;;
16969;SDS011;8601;48.718;8.992;2022-09-09T16:54:32;1.27;;;0.53;;
16969;SDS011;8601;48.718;8.992;2022-09-09T16:56:59;0.90;;;0.90;;
16969;SDS011;8601;48.718;8.992;2022-09-09T16:59:26;0.60;;;0.60;;
16969;SDS011;8601;48.718;8.992;2022-09-09T17:01:54;0.70;;;0.70;;
16969;SDS011;8601;48.718;8.992;2022-09-09T17:04:23;4.73;;;0.90;;
16969;SDS011;8601;48.718;8.992;2022-09-09T17:06:53;0.93;;;0.60;;
16969;SDS011;8601;48.718;8.992;2022-09-09T17:09:20;1.80;;;0.70;;
16969;SDS011;8601;48.718;8.992;2022-09-09T17:11:49;1.30;;;0.70;;